Ashwood, Texas
Current Conditions -  °F | °C
As of 3:53 AM on Saturday 22 Nov 2014 (Local Time) from KLBX Reporting Station
Clear Clear  
Wind Chill: 16°   Ceiling: Unl
Heat Index: 16°   Visibility: 9mi
Dew Point: 16°   Wind: 7mph
Humidity: 100%   Direction: 100°E
Pressure: 30.06"   Gusts: NA
Location:  29.0235°N, 95.7113°W
Report Text: KLBX 220953Z AUTO 10006KT 9SM CLR 16/16 A3006 RMK AO2 SLP180 T01610161
Loading
Personal Weather Stations






























Interactive Weather Map New forecast layout! Learn more

10-Day Weather Forecast

Advertisements
Track Severe Weather on mobile